sensor_id;sensor_type;location;lat;lon;timestamp;temperature;humidity
16040;DHT22;8124;48.634;8.120;2023-02-15T00:03:24;3.00;99.90
16040;DHT22;8124;48.634;8.120;2023-02-15T00:08:28;3.00;99.90
16040;DHT22;8124;48.634;8.120;2023-02-15T00:13:31;3.00;99.90
16040;DHT22;8124;48.634;8.120;2023-02-15T00:18:34;3.10;99.90
16040;DHT22;8124;48.634;8.120;2023-02-15T00:23:38;3.10;99.90
16040;DHT22;8124;48.634;8.120;2023-02-15T00:28:41;3.20;99.90
16040;DHT22;8124;48.634;8.120;2023-02-15T00:33:44;3.20;99.90
16040;DHT22;8124;48.634;8.120;2023-02-15T00:38:49;3.20;99.90
16040;DHT22;8124;48.634;8.120;2023-02-15T00:43:51;3.10;99.90
16040;DHT22;8124;48.634;8.120;2023-02-15T00:48:54;3.20;99.90
16040;DHT22;8124;48.634;8.120;2023-02-15T00:53:58;3.20;99.90
16040;DHT22;8124;48.634;8.120;2023-02-15T00:59:03;2.90;99.90
16040;DHT22;8124;48.634;8.120;2023-02-15T01:04:07;2.90;99.90
16040;DHT22;8124;48.634;8.120;2023-02-15T01:09:11;2.90;99.90
16040;DHT22;8124;48.634;8.120;2023-02-15T01:14:15;2.90;99.90
16040;DHT22;8124;48.634;8.120;2023-02-15T01:19:18;2.90;99.90
16040;DHT22;8124;48.634;8.120;2023-02-15T01:24:22;2.90;99.90
16040;DHT22;8124;48.634;8.120;2023-02-15T01:29:25;3.00;99.90
16040;DHT22;8124;48.634;8.120;2023-02-15T01:34:29;3.10;99.90
16040;DHT22;8124;48.634;8.120;2023-02-15T01:39:33;3.10;99.90
16040;DHT22;8124;48.634;8.120;2023-02-15T01:44:53;3.00;99.90
16040;DHT22;8124;48.634;8.120;2023-02-15T01:50:03;3.00;99.90
16040;DHT22;8124;48.634;8.120;2023-02-15T01:55:10;3.00;99.90
16040;DHT22;8124;48.634;8.120;2023-02-15T02:00:16;3.00;99.90
16040;DHT22;8124;48.634;8.120;2023-02-15T02:05:22;3.00;99.90
16040;DHT22;8124;48.634;8.120;2023-02-15T02:10:26;3.10;99.90
16040;DHT22;8124;48.634;8.120;2023-02-15T02:15:39;3.00;99.90
16040;DHT22;8124;48.634;8.120;2023-02-15T02:26:53;3.10;99.90
16040;DHT22;8124;48.634;8.120;2023-02-15T02:32:33;3.10;99.90
16040;DHT22;8124;48.634;8.120;2023-02-15T02:37:48;3.00;99.90
16040;DHT22;8124;48.634;8.120;2023-02-15T02:42:59;2.90;99.90
16040;DHT22;8124;48.634;8.120;2023-02-15T02:48:07;2.90;99.90
16040;DHT22;8124;48.634;8.120;2023-02-15T02:53:12;2.90;99.90
16040;DHT22;8124;48.634;8.120;2023-02-15T02:58:18;2.90;99.90
16040;DHT22;8124;48.634;8.120;2023-02-15T03:03:26;2.80;99.90
16040;DHT22;8124;48.634;8.120;2023-02-15T03:08:35;2.80;99.90
16040;DHT22;8124;48.634;8.120;2023-02-15T03:13:40;2.80;99.90
16040;DHT22;8124;48.634;8.120;2023-02-15T03:18:48;2.70;99.90
16040;DHT22;8124;48.634;8.120;2023-02-15T03:24:04;2.70;99.90
16040;DHT22;8124;48.634;8.120;2023-02-15T03:29:10;2.80;99.90
16040;DHT22;8124;48.634;8.120;2023-02-15T03:34:15;2.60;99.90
16040;DHT22;8124;48.634;8.120;2023-02-15T03:39:23;2.50;99.90
16040;DHT22;8124;48.634;8.120;2023-02-15T03:44:30;2.50;99.90
16040;DHT22;8124;48.634;8.120;2023-02-15T03:49:39;2.50;99.90
16040;DHT22;8124;48.634;8.120;2023-02-15T03:54:45;2.40;99.90
16040;DHT22;8124;48.634;8.120;2023-02-15T03:59:48;2.50;99.90
16040;DHT22;8124;48.634;8.120;2023-02-15T04:05:12;2.50;99.90
16040;DHT22;8124;48.634;8.120;2023-02-15T04:10:16;2.50;99.90
16040;DHT22;8124;48.634;8.120;2023-02-15T04:15:37;2.40;99.90
16040;DHT22;8124;48.634;8.120;2023-02-15T04:20:57;2.20;99.90
16040;DHT22;8124;48.634;8.120;2023-02-15T04:26:19;2.30;99.90
16040;DHT22;8124;48.634;8.120;2023-02-15T04:31:22;2.50;99.90
16040;DHT22;8124;48.634;8.120;2023-02-15T04:36:25;2.40;99.90
16040;DHT22;8124;48.634;8.120;2023-02-15T04:41:30;2.40;99.90
16040;DHT22;8124;48.634;8.120;2023-02-15T04:46:32;2.40;99.90
16040;DHT22;8124;48.634;8.120;2023-02-15T04:51:35;2.40;99.90
16040;DHT22;8124;48.634;8.120;2023-02-15T04:56:44;2.40;99.90
16040;DHT22;8124;48.634;8.120;2023-02-15T05:01:47;2.20;99.90
16040;DHT22;8124;48.634;8.120;2023-02-15T05:06:49;2.20;99.90
16040;DHT22;8124;48.634;8.120;2023-02-15T05:11:54;2.10;99.90
16040;DHT22;8124;48.634;8.120;2023-02-15T05:16:56;2.00;99.90
16040;DHT22;8124;48.634;8.120;2023-02-15T05:22:02;2.00;99.90
16040;DHT22;8124;48.634;8.120;2023-02-15T05:27:07;1.80;99.90
16040;DHT22;8124;48.634;8.120;2023-02-15T05:32:27;1.90;99.90
16040;DHT22;8124;48.634;8.120;2023-02-15T05:37:30;2.20;99.90
16040;DHT22;8124;48.634;8.120;2023-02-15T05:42:34;2.20;99.90
16040;DHT22;8124;48.634;8.120;2023-02-15T05:47:38;2.30;99.90
16040;DHT22;8124;48.634;8.120;2023-02-15T05:52:41;2.40;99.90
16040;DHT22;8124;48.634;8.120;2023-02-15T05:57:45;2.40;99.90
16040;DHT22;8124;48.634;8.120;2023-02-15T06:02:48;2.30;99.90
16040;DHT22;8124;48.634;8.120;2023-02-15T06:07:51;2.30;99.90
16040;DHT22;8124;48.634;8.120;2023-02-15T06:12:55;2.30;99.90
16040;DHT22;8124;48.634;8.120;2023-02-15T06:17:59;2.40;99.90
16040;DHT22;8124;48.634;8.120;2023-02-15T06:23:01;2.40;99.90
16040;DHT22;8124;48.634;8.120;2023-02-15T06:28:06;2.40;99.90
16040;DHT22;8124;48.634;8.120;2023-02-15T06:33:08;2.50;99.90
16040;DHT22;8124;48.634;8.120;2023-02-15T06:38:11;2.50;99.90
16040;DHT22;8124;48.634;8.120;2023-02-15T06:43:19;2.60;99.90
16040;DHT22;8124;48.634;8.120;2023-02-15T06:48:21;2.60;99.90
16040;DHT22;8124;48.634;8.120;2023-02-15T06:53:24;2.50;99.90
16040;DHT22;8124;48.634;8.120;2023-02-15T06:58:29;2.50;99.90
16040;DHT22;8124;48.634;8.120;2023-02-15T07:03:32;2.40;99.90
16040;DHT22;8124;48.634;8.120;2023-02-15T07:08:37;2.20;99.90
16040;DHT22;8124;48.634;8.120;2023-02-15T07:13:42;2.20;99.90
16040;DHT22;8124;48.634;8.120;2023-02-15T07:18:45;2.30;99.90
16040;DHT22;8124;48.634;8.120;2023-02-15T07:23:48;2.00;99.90
16040;DHT22;8124;48.634;8.120;2023-02-15T07:28:52;2.00;99.90
16040;DHT22;8124;48.634;8.120;2023-02-15T07:33:55;2.20;99.90
16040;DHT22;8124;48.634;8.120;2023-02-15T07:38:58;2.20;99.90
16040;DHT22;8124;48.634;8.120;2023-02-15T07:44:02;1.80;99.90
16040;DHT22;8124;48.634;8.120;2023-02-15T07:49:05;2.10;99.90
16040;DHT22;8124;48.634;8.120;2023-02-15T07:54:08;2.20;99.90
16040;DHT22;8124;48.634;8.120;2023-02-15T07:59:12;2.00;99.90
16040;DHT22;8124;48.634;8.120;2023-02-15T08:04:15;1.90;99.90
16040;DHT22;8124;48.634;8.120;2023-02-15T08:09:19;2.10;99.90
16040;DHT22;8124;48.634;8.120;2023-02-15T08:14:24;2.20;99.90
16040;DHT22;8124;48.634;8.120;2023-02-15T08:19:28;2.30;99.90
16040;DHT22;8124;48.634;8.120;2023-02-15T08:24:32;2.40;99.90
16040;DHT22;8124;48.634;8.120;2023-02-15T08:29:38;2.30;99.90
16040;DHT22;8124;48.634;8.120;2023-02-15T08:34:41;2.40;99.90
16040;DHT22;8124;48.634;8.120;2023-02-15T08:39:44;2.30;99.90
16040;DHT22;8124;48.634;8.120;2023-02-15T08:44:48;2.20;99.90
16040;DHT22;8124;48.634;8.120;2023-02-15T08:49:52;2.10;99.90
16040;DHT22;8124;48.634;8.120;2023-02-15T08:54:54;1.90;99.90
16040;DHT22;8124;48.634;8.120;2023-02-15T09:00:00;2.20;99.90
16040;DHT22;8124;48.634;8.120;2023-02-15T09:05:06;2.20;99.90
16040;DHT22;8124;48.634;8.120;2023-02-15T09:10:09;2.10;99.90
16040;DHT22;8124;48.634;8.120;2023-02-15T09:15:14;2.10;99.90
16040;DHT22;8124;48.634;8.120;2023-02-15T09:20:17;1.80;99.90
16040;DHT22;8124;48.634;8.120;2023-02-15T09:25:20;1.60;99.90
16040;DHT22;8124;48.634;8.120;2023-02-15T09:30:24;1.70;99.90
16040;DHT22;8124;48.634;8.120;2023-02-15T09:35:28;1.80;99.90
16040;DHT22;8124;48.634;8.120;2023-02-15T09:40:36;1.80;99.90
16040;DHT22;8124;48.634;8.120;2023-02-15T09:45:55;1.80;99.90
16040;DHT22;8124;48.634;8.120;2023-02-15T09:51:14;2.00;99.90
16040;DHT22;8124;48.634;8.120;2023-02-15T09:56:29;2.20;99.90
16040;DHT22;8124;48.634;8.120;2023-02-15T10:01:48;2.40;99.90
16040;DHT22;8124;48.634;8.120;2023-02-15T10:07:00;3.10;99.90
16040;DHT22;8124;48.634;8.120;2023-02-15T10:12:28;3.10;99.90
16040;DHT22;8124;48.634;8.120;2023-02-15T10:17:49;2.90;99.90
16040;DHT22;8124;48.634;8.120;2023-02-15T10:23:13;2.80;99.90
16040;DHT22;8124;48.634;8.120;2023-02-15T10:28:26;2.80;99.90
16040;DHT22;8124;48.634;8.120;2023-02-15T10:33:38;2.70;99.90
16040;DHT22;8124;48.634;8.120;2023-02-15T10:38:44;2.70;99.90
16040;DHT22;8124;48.634;8.120;2023-02-15T10:44:06;2.90;99.90
16040;DHT22;8124;48.634;8.120;2023-02-15T10:49:26;2.80;99.90
16040;DHT22;8124;48.634;8.120;2023-02-15T10:54:37;2.80;99.90
16040;DHT22;8124;48.634;8.120;2023-02-15T10:59:51;2.80;99.90
16040;DHT22;8124;48.634;8.120;2023-02-15T11:05:07;3.00;99.90
16040;DHT22;8124;48.634;8.120;2023-02-15T11:10:26;3.20;99.90
16040;DHT22;8124;48.634;8.120;2023-02-15T11:15:32;3.20;99.90
16040;DHT22;8124;48.634;8.120;2023-02-15T11:20:42;3.30;99.90
16040;DHT22;8124;48.634;8.120;2023-02-15T11:25:54;3.40;99.90
16040;DHT22;8124;48.634;8.120;2023-02-15T11:31:00;3.50;99.90
16040;DHT22;8124;48.634;8.120;2023-02-15T11:36:09;3.60;99.90
16040;DHT22;8124;48.634;8.120;2023-02-15T11:41:18;3.40;99.90
16040;DHT22;8124;48.634;8.120;2023-02-15T11:46:22;3.40;99.90
16040;DHT22;8124;48.634;8.120;2023-02-15T11:51:27;3.40;99.90
16040;DHT22;8124;48.634;8.120;2023-02-15T11:56:31;3.20;99.90
16040;DHT22;8124;48.634;8.120;2023-02-15T12:01:39;3.10;99.90
16040;DHT22;8124;48.634;8.120;2023-02-15T12:06:47;3.00;99.90
16040;DHT22;8124;48.634;8.120;2023-02-15T12:11:51;3.00;99.90
16040;DHT22;8124;48.634;8.120;2023-02-15T12:16:55;3.10;99.90
16040;DHT22;8124;48.634;8.120;2023-02-15T12:22:01;3.10;99.90
16040;DHT22;8124;48.634;8.120;2023-02-15T12:27:11;3.40;99.90
16040;DHT22;8124;48.634;8.120;2023-02-15T12:32:34;3.50;99.90
16040;DHT22;8124;48.634;8.120;2023-02-15T12:37:39;3.50;99.90
16040;DHT22;8124;48.634;8.120;2023-02-15T12:42:54;3.20;99.90
16040;DHT22;8124;48.634;8.120;2023-02-15T12:48:14;3.40;99.90
16040;DHT22;8124;48.634;8.120;2023-02-15T12:53:21;3.20;99.90
16040;DHT22;8124;48.634;8.120;2023-02-15T12:58:26;3.40;99.90
16040;DHT22;8124;48.634;8.120;2023-02-15T13:03:31;3.30;99.90
16040;DHT22;8124;48.634;8.120;2023-02-15T13:08:44;3.40;99.90
16040;DHT22;8124;48.634;8.120;2023-02-15T13:13:51;3.40;99.90
16040;DHT22;8124;48.634;8.120;2023-02-15T13:18:57;3.30;99.90
16040;DHT22;8124;48.634;8.120;2023-02-15T13:24:06;3.30;99.90
16040;DHT22;8124;48.634;8.120;2023-02-15T13:29:17;3.50;99.90
16040;DHT22;8124;48.634;8.120;2023-02-15T13:34:24;3.60;99.90
16040;DHT22;8124;48.634;8.120;2023-02-15T13:39:34;3.60;99.90
16040;DHT22;8124;48.634;8.120;2023-02-15T13:45:06;3.70;99.90
16040;DHT22;8124;48.634;8.120;2023-02-15T13:50:21;3.70;99.90
16040;DHT22;8124;48.634;8.120;2023-02-15T13:55:42;3.50;99.90
16040;DHT22;8124;48.634;8.120;2023-02-15T14:00:54;3.60;99.90
16040;DHT22;8124;48.634;8.120;2023-02-15T14:06:25;3.70;99.90
16040;DHT22;8124;48.634;8.120;2023-02-15T14:11:37;3.60;99.90
16040;DHT22;8124;48.634;8.120;2023-02-15T14:16:47;3.50;99.90
16040;DHT22;8124;48.634;8.120;2023-02-15T14:22:15;3.70;99.90
16040;DHT22;8124;48.634;8.120;2023-02-15T14:27:27;3.80;99.90
16040;DHT22;8124;48.634;8.120;2023-02-15T14:32:39;3.90;99.90
16040;DHT22;8124;48.634;8.120;2023-02-15T14:37:46;4.00;99.90
16040;DHT22;8124;48.634;8.120;2023-02-15T14:42:56;4.00;99.90
16040;DHT22;8124;48.634;8.120;2023-02-15T14:48:10;4.10;99.90
16040;DHT22;8124;48.634;8.120;2023-02-15T14:53:35;4.00;99.90
16040;DHT22;8124;48.634;8.120;2023-02-15T14:58:58;4.10;99.90
16040;DHT22;8124;48.634;8.120;2023-02-15T15:04:04;3.90;99.90
16040;DHT22;8124;48.634;8.120;2023-02-15T15:09:12;4.10;99.90
16040;DHT22;8124;48.634;8.120;2023-02-15T15:14:37;4.20;99.90
16040;DHT22;8124;48.634;8.120;2023-02-15T15:20:06;4.10;99.90
16040;DHT22;8124;48.634;8.120;2023-02-15T15:25:40;4.10;99.90
16040;DHT22;8124;48.634;8.120;2023-02-15T15:30:53;4.10;99.90
16040;DHT22;8124;48.634;8.120;2023-02-15T15:36:15;4.20;99.90
16040;DHT22;8124;48.634;8.120;2023-02-15T15:41:32;4.10;99.90
16040;DHT22;8124;48.634;8.120;2023-02-15T15:47:19;4.30;99.90
16040;DHT22;8124;48.634;8.120;2023-02-15T15:52:27;4.60;99.90
16040;DHT22;8124;48.634;8.120;2023-02-15T15:57:34;4.50;99.90
16040;DHT22;8124;48.634;8.120;2023-02-15T16:02:51;4.40;99.90
16040;DHT22;8124;48.634;8.120;2023-02-15T16:07:54;4.50;99.90
16040;DHT22;8124;48.634;8.120;2023-02-15T16:12:58;4.50;99.90
16040;DHT22;8124;48.634;8.120;2023-02-15T16:18:03;4.30;99.90
16040;DHT22;8124;48.634;8.120;2023-02-15T16:23:16;4.60;99.90
16040;DHT22;8124;48.634;8.120;2023-02-15T16:28:24;4.60;99.90
16040;DHT22;8124;48.634;8.120;2023-02-15T16:33:35;4.60;99.90
16040;DHT22;8124;48.634;8.120;2023-02-15T16:39:07;4.70;99.90
16040;DHT22;8124;48.634;8.120;2023-02-15T16:44:15;4.60;99.90
16040;DHT22;8124;48.634;8.120;2023-02-15T16:49:23;4.40;99.90
16040;DHT22;8124;48.634;8.120;2023-02-15T16:54:28;4.00;99.90
16040;DHT22;8124;48.634;8.120;2023-02-15T16:59:35;4.00;99.90
16040;DHT22;8124;48.634;8.120;2023-02-15T17:04:40;3.90;99.90
16040;DHT22;8124;48.634;8.120;2023-02-15T17:09:51;3.80;99.90
16040;DHT22;8124;48.634;8.120;2023-02-15T17:14:55;4.00;99.90
16040;DHT22;8124;48.634;8.120;2023-02-15T17:19:59;4.10;99.90
16040;DHT22;8124;48.634;8.120;2023-02-15T17:25:03;4.00;99.90
16040;DHT22;8124;48.634;8.120;2023-02-15T17:30:15;4.20;99.90
16040;DHT22;8124;48.634;8.120;2023-02-15T17:35:23;4.30;99.90
16040;DHT22;8124;48.634;8.120;2023-02-15T17:40:28;4.30;99.90
16040;DHT22;8124;48.634;8.120;2023-02-15T17:45:33;4.40;99.90
16040;DHT22;8124;48.634;8.120;2023-02-15T17:50:39;4.40;99.90
16040;DHT22;8124;48.634;8.120;2023-02-15T17:55:42;4.30;99.90
16040;DHT22;8124;48.634;8.120;2023-02-15T18:00:47;4.40;99.90
16040;DHT22;8124;48.634;8.120;2023-02-15T18:06:18;4.30;99.90
16040;DHT22;8124;48.634;8.120;2023-02-15T18:11:39;4.10;99.90
16040;DHT22;8124;48.634;8.120;2023-02-15T18:16:45;4.10;99.90
16040;DHT22;8124;48.634;8.120;2023-02-15T18:21:50;4.10;99.90
16040;DHT22;8124;48.634;8.120;2023-02-15T18:26:56;4.10;99.90
16040;DHT22;8124;48.634;8.120;2023-02-15T18:32:00;3.70;99.90
16040;DHT22;8124;48.634;8.120;2023-02-15T18:37:05;3.50;99.90
16040;DHT22;8124;48.634;8.120;2023-02-15T18:42:20;3.00;99.90
16040;DHT22;8124;48.634;8.120;2023-02-15T18:47:23;3.00;99.90
16040;DHT22;8124;48.634;8.120;2023-02-15T18:52:32;3.50;99.90
16040;DHT22;8124;48.634;8.120;2023-02-15T18:57:35;3.60;99.90
16040;DHT22;8124;48.634;8.120;2023-02-15T19:02:38;3.40;99.90
16040;DHT22;8124;48.634;8.120;2023-02-15T19:07:43;3.20;99.90
16040;DHT22;8124;48.634;8.120;2023-02-15T19:12:49;3.50;99.90
16040;DHT22;8124;48.634;8.120;2023-02-15T19:17:53;3.60;99.90
16040;DHT22;8124;48.634;8.120;2023-02-15T19:23:00;3.70;99.90
16040;DHT22;8124;48.634;8.120;2023-02-15T19:28:13;3.80;99.90
16040;DHT22;8124;48.634;8.120;2023-02-15T19:33:18;3.80;99.90
16040;DHT22;8124;48.634;8.120;2023-02-15T19:38:25;3.90;99.90
16040;DHT22;8124;48.634;8.120;2023-02-15T19:43:31;3.80;99.90
16040;DHT22;8124;48.634;8.120;2023-02-15T19:48:34;3.70;99.90
16040;DHT22;8124;48.634;8.120;2023-02-15T19:53:43;4.40;99.90
16040;DHT22;8124;48.634;8.120;2023-02-15T19:58:57;4.00;99.90
16040;DHT22;8124;48.634;8.120;2023-02-15T20:04:00;3.80;99.90
16040;DHT22;8124;48.634;8.120;2023-02-15T20:09:33;3.80;99.90
16040;DHT22;8124;48.634;8.120;2023-02-15T20:14:43;3.70;99.90
16040;DHT22;8124;48.634;8.120;2023-02-15T20:19:49;3.50;99.90
16040;DHT22;8124;48.634;8.120;2023-02-15T20:24:55;3.00;99.90
16040;DHT22;8124;48.634;8.120;2023-02-15T20:30:13;2.70;99.90
16040;DHT22;8124;48.634;8.120;2023-02-15T20:35:24;2.50;99.90
16040;DHT22;8124;48.634;8.120;2023-02-15T20:40:47;2.50;99.90
16040;DHT22;8124;48.634;8.120;2023-02-15T20:46:07;2.50;99.90
16040;DHT22;8124;48.634;8.120;2023-02-15T20:56:49;2.90;99.90
16040;DHT22;8124;48.634;8.120;2023-02-15T21:02:32;2.90;99.90
16040;DHT22;8124;48.634;8.120;2023-02-15T21:09:04;3.00;99.90
16040;DHT22;8124;48.634;8.120;2023-02-15T21:20:43;3.30;99.90
16040;DHT22;8124;48.634;8.120;2023-02-15T21:25:47;3.40;99.90
16040;DHT22;8124;48.634;8.120;2023-02-15T21:30:52;3.40;99.90
16040;DHT22;8124;48.634;8.120;2023-02-15T21:35:56;3.20;99.90
16040;DHT22;8124;48.634;8.120;2023-02-15T21:40:59;3.00;99.90
16040;DHT22;8124;48.634;8.120;2023-02-15T21:46:25;3.20;99.90
16040;DHT22;8124;48.634;8.120;2023-02-15T21:51:46;3.30;99.90
16040;DHT22;8124;48.634;8.120;2023-02-15T21:57:12;3.20;99.90
16040;DHT22;8124;48.634;8.120;2023-02-15T22:02:28;2.90;99.90
16040;DHT22;8124;48.634;8.120;2023-02-15T22:07:31;2.50;99.90
16040;DHT22;8124;48.634;8.120;2023-02-15T22:12:35;2.40;99.90
16040;DHT22;8124;48.634;8.120;2023-02-15T22:17:39;2.30;99.90
16040;DHT22;8124;48.634;8.120;2023-02-15T22:22:42;2.30;99.90
16040;DHT22;8124;48.634;8.120;2023-02-15T22:27:46;2.40;99.90
16040;DHT22;8124;48.634;8.120;2023-02-15T22:32:51;2.60;99.90
16040;DHT22;8124;48.634;8.120;2023-02-15T22:37:55;2.60;99.90
16040;DHT22;8124;48.634;8.120;2023-02-15T22:43:00;2.60;99.90
16040;DHT22;8124;48.634;8.120;2023-02-15T22:48:05;2.70;99.90
16040;DHT22;8124;48.634;8.120;2023-02-15T22:53:10;2.60;99.90
16040;DHT22;8124;48.634;8.120;2023-02-15T22:58:17;2.60;99.90
16040;DHT22;8124;48.634;8.120;2023-02-15T23:03:24;2.60;99.90
16040;DHT22;8124;48.634;8.120;2023-02-15T23:08:27;2.50;99.90
16040;DHT22;8124;48.634;8.120;2023-02-15T23:13:31;2.30;99.90
16040;DHT22;8124;48.634;8.120;2023-02-15T23:18:38;2.40;99.90
16040;DHT22;8124;48.634;8.120;2023-02-15T23:23:43;2.40;99.90
16040;DHT22;8124;48.634;8.120;2023-02-15T23:28:46;2.30;99.90
16040;DHT22;8124;48.634;8.120;2023-02-15T23:33:52;2.30;99.90
16040;DHT22;8124;48.634;8.120;2023-02-15T23:38:56;2.10;99.90
16040;DHT22;8124;48.634;8.120;2023-02-15T23:44:12;1.60;99.90
16040;DHT22;8124;48.634;8.120;2023-02-15T23:49:18;1.60;99.90
16040;DHT22;8124;48.634;8.120;2023-02-15T23:54:23;1.80;99.90
16040;DHT22;8124;48.634;8.120;2023-02-15T23:59:28;2.20;99.90
